sensor_id;sensor_type;location;lat;lon;timestamp;P1;durP1;ratioP1;P2;durP2;ratioP2
41623;SDS011;27319;50.306;18.926;2023-02-28T00:01:11;36.83;;;14.55;;
41623;SDS011;27319;50.306;18.926;2023-02-28T00:04:47;26.92;;;13.00;;
41623;SDS011;27319;50.306;18.926;2023-02-28T00:07:53;29.88;;;13.90;;
41623;SDS011;27319;50.306;18.926;2023-02-28T00:10:55;27.88;;;11.57;;
41623;SDS011;27319;50.306;18.926;2023-02-28T00:13:56;30.80;;;11.88;;
41623;SDS011;27319;50.306;18.926;2023-02-28T00:16:57;29.17;;;12.68;;
41623;SDS011;27319;50.306;18.926;2023-02-28T00:19:58;26.65;;;12.68;;
41623;SDS011;27319;50.306;18.926;2023-02-28T00:23:12;26.05;;;10.95;;
41623;SDS011;27319;50.306;18.926;2023-02-28T00:26:13;26.45;;;11.48;;
41623;SDS011;27319;50.306;18.926;2023-02-28T00:29:14;26.42;;;12.48;;
41623;SDS011;27319;50.306;18.926;2023-02-28T00:32:15;24.40;;;12.00;;
41623;SDS011;27319;50.306;18.926;2023-02-28T00:35:16;28.45;;;12.77;;
41623;SDS011;27319;50.306;18.926;2023-02-28T00:38:17;29.38;;;11.73;;
41623;SDS011;27319;50.306;18.926;2023-02-28T00:41:18;23.48;;;11.30;;
41623;SDS011;27319;50.306;18.926;2023-02-28T00:44:19;22.60;;;10.88;;
41623;SDS011;27319;50.306;18.926;2023-02-28T00:47:22;22.45;;;10.57;;
41623;SDS011;27319;50.306;18.926;2023-02-28T00:50:23;26.92;;;11.43;;
41623;SDS011;27319;50.306;18.926;2023-02-28T00:53:24;22.15;;;10.40;;
41623;SDS011;27319;50.306;18.926;2023-02-28T00:56:25;25.67;;;10.55;;
41623;SDS011;27319;50.306;18.926;2023-02-28T00:59:26;29.42;;;11.75;;
41623;SDS011;27319;50.306;18.926;2023-02-28T01:02:27;30.65;;;11.27;;
41623;SDS011;27319;50.306;18.926;2023-02-28T01:05:28;25.25;;;11.68;;
41623;SDS011;27319;50.306;18.926;2023-02-28T01:08:29;26.85;;;11.10;;
41623;SDS011;27319;50.306;18.926;2023-02-28T01:11:30;26.38;;;11.38;;
41623;SDS011;27319;50.306;18.926;2023-02-28T01:14:31;22.48;;;10.85;;
41623;SDS011;27319;50.306;18.926;2023-02-28T01:17:32;29.25;;;11.13;;
41623;SDS011;27319;50.306;18.926;2023-02-28T01:20:35;27.52;;;11.07;;
41623;SDS011;27319;50.306;18.926;2023-02-28T01:23:38;23.48;;;10.82;;
41623;SDS011;27319;50.306;18.926;2023-02-28T01:26:39;25.92;;;11.55;;
41623;SDS011;27319;50.306;18.926;2023-02-28T01:29:40;25.38;;;10.68;;
41623;SDS011;27319;50.306;18.926;2023-02-28T01:32:41;23.77;;;11.15;;
41623;SDS011;27319;50.306;18.926;2023-02-28T01:35:42;26.10;;;10.75;;
41623;SDS011;27319;50.306;18.926;2023-02-28T01:38:43;23.55;;;11.45;;
41623;SDS011;27319;50.306;18.926;2023-02-28T01:41:45;26.88;;;11.50;;
41623;SDS011;27319;50.306;18.926;2023-02-28T01:48:32;22.23;;;10.50;;
41623;SDS011;27319;50.306;18.926;2023-02-28T01:51:41;24.88;;;11.77;;
41623;SDS011;27319;50.306;18.926;2023-02-28T01:54:52;22.73;;;11.63;;
41623;SDS011;27319;50.306;18.926;2023-02-28T01:57:57;26.10;;;12.05;;
41623;SDS011;27319;50.306;18.926;2023-02-28T02:01:00;26.75;;;12.80;;
41623;SDS011;27319;50.306;18.926;2023-02-28T02:04:03;28.40;;;12.90;;
41623;SDS011;27319;50.306;18.926;2023-02-28T02:07:04;30.88;;;14.10;;
41623;SDS011;27319;50.306;18.926;2023-02-28T02:16:27;29.25;;;11.98;;
41623;SDS011;27319;50.306;18.926;2023-02-28T02:26:58;23.02;;;9.73;;
41623;SDS011;27319;50.306;18.926;2023-02-28T02:37:14;24.25;;;10.23;;
41623;SDS011;27319;50.306;18.926;2023-02-28T02:44:10;18.75;;;9.70;;
41623;SDS011;27319;50.306;18.926;2023-02-28T02:46:46;23.20;;;9.80;;
41623;SDS011;27319;50.306;18.926;2023-02-28T02:49:49;20.10;;;9.82;;
41623;SDS011;27319;50.306;18.926;2023-02-28T02:52:54;17.80;;;9.90;;
41623;SDS011;27319;50.306;18.926;2023-02-28T02:55:58;21.00;;;10.20;;
41623;SDS011;27319;50.306;18.926;2023-02-28T02:59:02;18.10;;;9.27;;
41623;SDS011;27319;50.306;18.926;2023-02-28T03:02:06;20.95;;;9.48;;
41623;SDS011;27319;50.306;18.926;2023-02-28T03:06:07;24.55;;;11.25;;
41623;SDS011;27319;50.306;18.926;2023-02-28T03:09:08;21.95;;;9.48;;
41623;SDS011;27319;50.306;18.926;2023-02-28T03:12:11;19.63;;;9.23;;
41623;SDS011;27319;50.306;18.926;2023-02-28T03:22:06;20.00;;;9.70;;
41623;SDS011;27319;50.306;18.926;2023-02-28T03:31:49;20.73;;;10.05;;
41623;SDS011;27319;50.306;18.926;2023-02-28T03:34:58;18.05;;;10.40;;
41623;SDS011;27319;50.306;18.926;2023-02-28T03:38:18;17.52;;;9.30;;
41623;SDS011;27319;50.306;18.926;2023-02-28T03:41:26;20.13;;;9.65;;
41623;SDS011;27319;50.306;18.926;2023-02-28T03:44:35;18.17;;;10.27;;
41623;SDS011;27319;50.306;18.926;2023-02-28T03:48:20;23.27;;;12.07;;
41623;SDS011;27319;50.306;18.926;2023-02-28T03:51:25;27.20;;;12.10;;
41623;SDS011;27319;50.306;18.926;2023-02-28T03:54:30;27.00;;;13.70;;
41623;SDS011;27319;50.306;18.926;2023-02-28T03:57:59;25.13;;;13.25;;
41623;SDS011;27319;50.306;18.926;2023-02-28T04:04:16;23.60;;;12.00;;
41623;SDS011;27319;50.306;18.926;2023-02-28T04:07:18;25.88;;;11.95;;
41623;SDS011;27319;50.306;18.926;2023-02-28T04:10:19;27.27;;;13.15;;
41623;SDS011;27319;50.306;18.926;2023-02-28T04:13:20;26.02;;;13.05;;
41623;SDS011;27319;50.306;18.926;2023-02-28T04:16:21;23.42;;;13.02;;
41623;SDS011;27319;50.306;18.926;2023-02-28T04:19:22;23.63;;;13.23;;
41623;SDS011;27319;50.306;18.926;2023-02-28T04:22:23;22.73;;;13.32;;
41623;SDS011;27319;50.306;18.926;2023-02-28T04:25:27;25.17;;;12.23;;
41623;SDS011;27319;50.306;18.926;2023-02-28T04:28:28;23.38;;;12.43;;
41623;SDS011;27319;50.306;18.926;2023-02-28T04:31:29;23.65;;;12.88;;
41623;SDS011;27319;50.306;18.926;2023-02-28T04:34:30;22.85;;;12.23;;
41623;SDS011;27319;50.306;18.926;2023-02-28T04:37:32;27.50;;;14.88;;
41623;SDS011;27319;50.306;18.926;2023-02-28T04:40:35;24.60;;;12.27;;
41623;SDS011;27319;50.306;18.926;2023-02-28T04:43:36;26.15;;;12.57;;
41623;SDS011;27319;50.306;18.926;2023-02-28T04:46:37;23.30;;;12.32;;
41623;SDS011;27319;50.306;18.926;2023-02-28T04:49:38;23.55;;;12.07;;
41623;SDS011;27319;50.306;18.926;2023-02-28T04:52:39;26.38;;;11.82;;
41623;SDS011;27319;50.306;18.926;2023-02-28T04:55:40;22.00;;;11.40;;
41623;SDS011;27319;50.306;18.926;2023-02-28T04:58:41;22.73;;;11.40;;
41623;SDS011;27319;50.306;18.926;2023-02-28T05:01:45;21.73;;;11.48;;
41623;SDS011;27319;50.306;18.926;2023-02-28T05:04:47;24.20;;;11.55;;
41623;SDS011;27319;50.306;18.926;2023-02-28T05:07:48;26.30;;;12.65;;
41623;SDS011;27319;50.306;18.926;2023-02-28T05:10:49;26.77;;;12.95;;
41623;SDS011;27319;50.306;18.926;2023-02-28T05:13:50;27.92;;;13.18;;
41623;SDS011;27319;50.306;18.926;2023-02-28T05:16:52;30.08;;;12.57;;
41623;SDS011;27319;50.306;18.926;2023-02-28T05:19:53;27.17;;;12.40;;
41623;SDS011;27319;50.306;18.926;2023-02-28T05:22:54;25.00;;;12.60;;
41623;SDS011;27319;50.306;18.926;2023-02-28T05:25:55;29.30;;;13.80;;
41623;SDS011;27319;50.306;18.926;2023-02-28T05:28:57;35.40;;;15.75;;
41623;SDS011;27319;50.306;18.926;2023-02-28T05:31:57;31.85;;;15.55;;
41623;SDS011;27319;50.306;18.926;2023-02-28T05:34:59;29.38;;;15.57;;
41623;SDS011;27319;50.306;18.926;2023-02-28T05:37:59;35.08;;;16.60;;
41623;SDS011;27319;50.306;18.926;2023-02-28T05:42:00;32.30;;;16.17;;
41623;SDS011;27319;50.306;18.926;2023-02-28T05:46:05;26.55;;;15.23;;
41623;SDS011;27319;50.306;18.926;2023-02-28T05:50:05;34.05;;;15.07;;
41623;SDS011;27319;50.306;18.926;2023-02-28T05:54:06;28.70;;;15.63;;
41623;SDS011;27319;50.306;18.926;2023-02-28T05:58:07;29.02;;;14.77;;
41623;SDS011;27319;50.306;18.926;2023-02-28T06:02:11;36.25;;;15.43;;
41623;SDS011;27319;50.306;18.926;2023-02-28T06:06:11;28.13;;;15.10;;
41623;SDS011;27319;50.306;18.926;2023-02-28T06:09:12;38.05;;;16.70;;
41623;SDS011;27319;50.306;18.926;2023-02-28T06:12:14;32.70;;;15.05;;
41623;SDS011;27319;50.306;18.926;2023-02-28T06:15:14;26.98;;;14.13;;
41623;SDS011;27319;50.306;18.926;2023-02-28T06:18:17;30.20;;;14.85;;
41623;SDS011;27319;50.306;18.926;2023-02-28T06:22:18;32.30;;;14.45;;
41623;SDS011;27319;50.306;18.926;2023-02-28T06:26:21;29.10;;;13.68;;
41623;SDS011;27319;50.306;18.926;2023-02-28T06:30:25;36.45;;;15.60;;
41623;SDS011;27319;50.306;18.926;2023-02-28T06:34:01;36.90;;;16.33;;
41623;SDS011;27319;50.306;18.926;2023-02-28T06:37:02;28.50;;;14.85;;
41623;SDS011;27319;50.306;18.926;2023-02-28T06:41:03;30.83;;;13.70;;
41623;SDS011;27319;50.306;18.926;2023-02-28T06:45:04;29.30;;;14.07;;
41623;SDS011;27319;50.306;18.926;2023-02-28T06:49:05;31.30;;;15.07;;
41623;SDS011;27319;50.306;18.926;2023-02-28T06:53:05;35.25;;;14.57;;
41623;SDS011;27319;50.306;18.926;2023-02-28T06:57:06;30.58;;;14.55;;
41623;SDS011;27319;50.306;18.926;2023-02-28T07:01:07;34.30;;;14.48;;
41623;SDS011;27319;50.306;18.926;2023-02-28T07:05:08;30.33;;;14.48;;
41623;SDS011;27319;50.306;18.926;2023-02-28T07:08:09;31.00;;;14.23;;
41623;SDS011;27319;50.306;18.926;2023-02-28T07:11:10;33.53;;;14.30;;
41623;SDS011;27319;50.306;18.926;2023-02-28T07:14:11;38.78;;;14.93;;
41623;SDS011;27319;50.306;18.926;2023-02-28T07:18:12;30.08;;;14.68;;
41623;SDS011;27319;50.306;18.926;2023-02-28T07:21:12;27.27;;;13.73;;
41623;SDS011;27319;50.306;18.926;2023-02-28T07:24:14;31.00;;;14.43;;
41623;SDS011;27319;50.306;18.926;2023-02-28T07:28:15;32.47;;;16.55;;
41623;SDS011;27319;50.306;18.926;2023-02-28T07:32:15;35.42;;;15.45;;
41623;SDS011;27319;50.306;18.926;2023-02-28T07:36:16;37.83;;;17.85;;
41623;SDS011;27319;50.306;18.926;2023-02-28T07:40:17;46.63;;;18.63;;
41623;SDS011;27319;50.306;18.926;2023-02-28T07:44:18;41.25;;;19.25;;
41623;SDS011;27319;50.306;18.926;2023-02-28T07:48:19;43.47;;;19.20;;
41623;SDS011;27319;50.306;18.926;2023-02-28T07:52:20;34.75;;;16.88;;
41623;SDS011;27319;50.306;18.926;2023-02-28T07:56:20;35.40;;;17.92;;
41623;SDS011;27319;50.306;18.926;2023-02-28T08:00:21;31.00;;;16.15;;
41623;SDS011;27319;50.306;18.926;2023-02-28T08:03:23;36.70;;;17.52;;
41623;SDS011;27319;50.306;18.926;2023-02-28T08:06:25;27.83;;;15.65;;
41623;SDS011;27319;50.306;18.926;2023-02-28T08:10:26;29.27;;;16.02;;
41623;SDS011;27319;50.306;18.926;2023-02-28T08:14:27;32.90;;;16.83;;
41623;SDS011;27319;50.306;18.926;2023-02-28T08:17:28;38.75;;;18.00;;
41623;SDS011;27319;50.306;18.926;2023-02-28T08:20:29;38.25;;;16.92;;
41623;SDS011;27319;50.306;18.926;2023-02-28T08:23:29;34.88;;;16.10;;
41623;SDS011;27319;50.306;18.926;2023-02-28T08:26:30;31.58;;;15.23;;
41623;SDS011;27319;50.306;18.926;2023-02-28T08:30:31;32.70;;;15.13;;
41623;SDS011;27319;50.306;18.926;2023-02-28T08:34:32;26.95;;;14.90;;
41623;SDS011;27319;50.306;18.926;2023-02-28T08:38:33;32.53;;;16.42;;
41623;SDS011;27319;50.306;18.926;2023-02-28T08:42:34;36.00;;;16.98;;
41623;SDS011;27319;50.306;18.926;2023-02-28T08:46:35;36.03;;;17.58;;
41623;SDS011;27319;50.306;18.926;2023-02-28T08:50:35;28.67;;;14.60;;
41623;SDS011;27319;50.306;18.926;2023-02-28T08:54:39;34.65;;;14.80;;
41623;SDS011;27319;50.306;18.926;2023-02-28T08:58:20;28.52;;;14.10;;
41623;SDS011;27319;50.306;18.926;2023-02-28T09:02:20;32.15;;;16.45;;
41623;SDS011;27319;50.306;18.926;2023-02-28T09:05:21;32.55;;;15.82;;
41623;SDS011;27319;50.306;18.926;2023-02-28T09:08:24;26.08;;;12.82;;
41623;SDS011;27319;50.306;18.926;2023-02-28T09:12:25;21.55;;;10.07;;
41623;SDS011;27319;50.306;18.926;2023-02-28T09:15:32;21.95;;;11.27;;
41623;SDS011;27319;50.306;18.926;2023-02-28T09:19:11;21.42;;;10.93;;
41623;SDS011;27319;50.306;18.926;2023-02-28T09:22:32;23.05;;;11.38;;
41623;SDS011;27319;50.306;18.926;2023-02-28T09:26:16;23.05;;;11.15;;
41623;SDS011;27319;50.306;18.926;2023-02-28T09:29:18;23.63;;;11.90;;
41623;SDS011;27319;50.306;18.926;2023-02-28T09:33:19;24.88;;;12.85;;
41623;SDS011;27319;50.306;18.926;2023-02-28T09:37:20;20.35;;;11.80;;
41623;SDS011;27319;50.306;18.926;2023-02-28T09:41:22;28.15;;;13.02;;
41623;SDS011;27319;50.306;18.926;2023-02-28T09:45:23;29.65;;;12.35;;
41623;SDS011;27319;50.306;18.926;2023-02-28T09:49:24;22.00;;;11.55;;
41623;SDS011;27319;50.306;18.926;2023-02-28T09:53:28;26.60;;;11.38;;
41623;SDS011;27319;50.306;18.926;2023-02-28T09:57:39;23.90;;;12.80;;
41623;SDS011;27319;50.306;18.926;2023-02-28T10:09:46;29.92;;;15.35;;
41623;SDS011;27319;50.306;18.926;2023-02-28T10:14:06;27.02;;;14.70;;
41623;SDS011;27319;50.306;18.926;2023-02-28T10:18:06;20.63;;;11.82;;
41623;SDS011;27319;50.306;18.926;2023-02-28T10:22:11;23.33;;;10.95;;
41623;SDS011;27319;50.306;18.926;2023-02-28T10:25:53;27.00;;;12.13;;
41623;SDS011;27319;50.306;18.926;2023-02-28T10:28:57;26.63;;;13.40;;
41623;SDS011;27319;50.306;18.926;2023-02-28T10:32:58;20.15;;;11.68;;
41623;SDS011;27319;50.306;18.926;2023-02-28T10:36:59;15.00;;;9.57;;
41623;SDS011;27319;50.306;18.926;2023-02-28T10:43:24;18.13;;;9.82;;
41623;SDS011;27319;50.306;18.926;2023-02-28T10:46:25;19.55;;;10.02;;
41623;SDS011;27319;50.306;18.926;2023-02-28T10:49:27;19.35;;;11.18;;
41623;SDS011;27319;50.306;18.926;2023-02-28T10:52:33;20.95;;;11.05;;
41623;SDS011;27319;50.306;18.926;2023-02-28T10:56:33;23.20;;;11.32;;
41623;SDS011;27319;50.306;18.926;2023-02-28T11:00:46;20.73;;;11.23;;
41623;SDS011;27319;50.306;18.926;2023-02-28T11:04:47;19.25;;;10.20;;
41623;SDS011;27319;50.306;18.926;2023-02-28T11:08:50;16.77;;;9.90;;
41623;SDS011;27319;50.306;18.926;2023-02-28T11:12:47;18.17;;;9.93;;
41623;SDS011;27319;50.306;18.926;2023-02-28T11:16:48;21.30;;;11.95;;
41623;SDS011;27319;50.306;18.926;2023-02-28T11:20:52;28.77;;;14.23;;
41623;SDS011;27319;50.306;18.926;2023-02-28T11:24:53;16.02;;;9.80;;
41623;SDS011;27319;50.306;18.926;2023-02-28T11:29:02;16.52;;;9.38;;
41623;SDS011;27319;50.306;18.926;2023-02-28T11:33:21;17.13;;;10.43;;
41623;SDS011;27319;50.306;18.926;2023-02-28T11:37:03;18.60;;;10.55;;
41623;SDS011;27319;50.306;18.926;2023-02-28T11:52:06;28.10;;;12.10;;
41623;SDS011;27319;50.306;18.926;2023-02-28T12:00:03;19.88;;;10.80;;
41623;SDS011;27319;50.306;18.926;2023-02-28T12:10:37;22.08;;;13.52;;
41623;SDS011;27319;50.306;18.926;2023-02-28T12:14:00;21.33;;;11.85;;
41623;SDS011;27319;50.306;18.926;2023-02-28T12:23:49;21.27;;;11.77;;
41623;SDS011;27319;50.306;18.926;2023-02-28T12:27:45;20.92;;;12.77;;
41623;SDS011;27319;50.306;18.926;2023-02-28T12:31:53;22.92;;;11.73;;
41623;SDS011;27319;50.306;18.926;2023-02-28T12:35:56;20.63;;;11.75;;
41623;SDS011;27319;50.306;18.926;2023-02-28T12:39:55;24.98;;;12.25;;
41623;SDS011;27319;50.306;18.926;2023-02-28T12:44:01;22.98;;;12.75;;
41623;SDS011;27319;50.306;18.926;2023-02-28T12:48:01;22.13;;;12.30;;
41623;SDS011;27319;50.306;18.926;2023-02-28T12:51:06;21.60;;;11.52;;
41623;SDS011;27319;50.306;18.926;2023-02-28T12:55:15;18.48;;;11.18;;
41623;SDS011;27319;50.306;18.926;2023-02-28T12:58:33;23.55;;;11.70;;
41623;SDS011;27319;50.306;18.926;2023-02-28T13:09:11;23.35;;;11.80;;
41623;SDS011;27319;50.306;18.926;2023-02-28T13:12:15;19.80;;;12.13;;
41623;SDS011;27319;50.306;18.926;2023-02-28T13:16:15;24.88;;;13.07;;
41623;SDS011;27319;50.306;18.926;2023-02-28T13:20:35;20.67;;;11.70;;
41623;SDS011;27319;50.306;18.926;2023-02-28T13:28:56;16.85;;;11.15;;
41623;SDS011;27319;50.306;18.926;2023-02-28T13:35:37;18.55;;;11.35;;
41623;SDS011;27319;50.306;18.926;2023-02-28T13:42:54;29.08;;;13.02;;
41623;SDS011;27319;50.306;18.926;2023-02-28T13:53:53;17.40;;;11.07;;
41623;SDS011;27319;50.306;18.926;2023-02-28T14:05:33;20.08;;;11.55;;
41623;SDS011;27319;50.306;18.926;2023-02-28T14:15:56;16.38;;;9.80;;
41623;SDS011;27319;50.306;18.926;2023-02-28T14:19:00;19.38;;;9.65;;
41623;SDS011;27319;50.306;18.926;2023-02-28T14:26:45;24.52;;;12.45;;
41623;SDS011;27319;50.306;18.926;2023-02-28T14:34:20;29.10;;;16.83;;
41623;SDS011;27319;50.306;18.926;2023-02-28T14:38:06;40.67;;;21.88;;
41623;SDS011;27319;50.306;18.926;2023-02-28T14:41:15;44.17;;;24.43;;
41623;SDS011;27319;50.306;18.926;2023-02-28T14:45:21;25.90;;;13.02;;
41623;SDS011;27319;50.306;18.926;2023-02-28T14:49:20;91.22;;;40.97;;
41623;SDS011;27319;50.306;18.926;2023-02-28T14:53:20;39.83;;;19.85;;
41623;SDS011;27319;50.306;18.926;2023-02-28T14:57:21;41.97;;;20.40;;
41623;SDS011;27319;50.306;18.926;2023-02-28T15:01:22;28.23;;;15.43;;
41623;SDS011;27319;50.306;18.926;2023-02-28T15:05:28;27.23;;;14.80;;
41623;SDS011;27319;50.306;18.926;2023-02-28T15:09:09;42.97;;;20.10;;
41623;SDS011;27319;50.306;18.926;2023-02-28T15:12:14;29.67;;;15.00;;
41623;SDS011;27319;50.306;18.926;2023-02-28T15:15:16;43.75;;;21.50;;
41623;SDS011;27319;50.306;18.926;2023-02-28T15:18:29;29.42;;;14.40;;
41623;SDS011;27319;50.306;18.926;2023-02-28T15:22:39;33.63;;;16.50;;
41623;SDS011;27319;50.306;18.926;2023-02-28T15:25:41;32.53;;;16.92;;
41623;SDS011;27319;50.306;18.926;2023-02-28T15:28:43;25.02;;;14.75;;
41623;SDS011;27319;50.306;18.926;2023-02-28T15:31:50;23.70;;;13.93;;
41623;SDS011;27319;50.306;18.926;2023-02-28T15:35:32;35.20;;;19.35;;
41623;SDS011;27319;50.306;18.926;2023-02-28T15:39:31;72.78;;;37.72;;
41623;SDS011;27319;50.306;18.926;2023-02-28T15:43:33;53.80;;;27.10;;
41623;SDS011;27319;50.306;18.926;2023-02-28T15:47:32;38.58;;;19.73;;
41623;SDS011;27319;50.306;18.926;2023-02-28T15:51:34;102.55;;;47.35;;
41623;SDS011;27319;50.306;18.926;2023-02-28T15:55:34;39.22;;;20.55;;
41623;SDS011;27319;50.306;18.926;2023-02-28T15:58:37;53.03;;;30.08;;
41623;SDS011;27319;50.306;18.926;2023-02-28T16:01:38;66.78;;;35.55;;
41623;SDS011;27319;50.306;18.926;2023-02-28T16:05:42;74.78;;;40.25;;
41623;SDS011;27319;50.306;18.926;2023-02-28T16:09:14;74.03;;;39.85;;
41623;SDS011;27319;50.306;18.926;2023-02-28T16:12:24;98.35;;;51.50;;
41623;SDS011;27319;50.306;18.926;2023-02-28T16:15:28;95.80;;;50.45;;
41623;SDS011;27319;50.306;18.926;2023-02-28T16:18:31;61.42;;;32.10;;
41623;SDS011;27319;50.306;18.926;2023-02-28T16:21:32;95.95;;;50.00;;
41623;SDS011;27319;50.306;18.926;2023-02-28T16:24:34;70.03;;;38.20;;
41623;SDS011;27319;50.306;18.926;2023-02-28T16:27:36;63.42;;;34.40;;
41623;SDS011;27319;50.306;18.926;2023-02-28T16:30:38;64.53;;;32.60;;
41623;SDS011;27319;50.306;18.926;2023-02-28T16:33:39;78.55;;;43.10;;
41623;SDS011;27319;50.306;18.926;2023-02-28T16:36:40;87.25;;;49.83;;
41623;SDS011;27319;50.306;18.926;2023-02-28T16:39:42;82.10;;;47.67;;
41623;SDS011;27319;50.306;18.926;2023-02-28T16:42:44;75.95;;;46.78;;
41623;SDS011;27319;50.306;18.926;2023-02-28T16:45:46;75.45;;;45.72;;
41623;SDS011;27319;50.306;18.926;2023-02-28T16:48:48;68.95;;;39.88;;
41623;SDS011;27319;50.306;18.926;2023-02-28T16:51:51;68.10;;;42.83;;
41623;SDS011;27319;50.306;18.926;2023-02-28T16:54:52;57.70;;;35.72;;
41623;SDS011;27319;50.306;18.926;2023-02-28T16:57:55;69.72;;;37.63;;
41623;SDS011;27319;50.306;18.926;2023-02-28T17:00:58;63.08;;;35.97;;
41623;SDS011;27319;50.306;18.926;2023-02-28T17:04:43;80.22;;;43.22;;
41623;SDS011;27319;50.306;18.926;2023-02-28T17:07:44;85.53;;;45.38;;
41623;SDS011;27319;50.306;18.926;2023-02-28T17:10:46;81.50;;;44.50;;
41623;SDS011;27319;50.306;18.926;2023-02-28T17:13:47;112.75;;;57.72;;
41623;SDS011;27319;50.306;18.926;2023-02-28T17:16:48;132.82;;;66.82;;
41623;SDS011;27319;50.306;18.926;2023-02-28T17:20:49;131.20;;;71.07;;
41623;SDS011;27319;50.306;18.926;2023-02-28T17:23:50;123.00;;;65.95;;
41623;SDS011;27319;50.306;18.926;2023-02-28T17:26:51;116.72;;;57.45;;
41623;SDS011;27319;50.306;18.926;2023-02-28T17:29:52;98.80;;;45.22;;
41623;SDS011;27319;50.306;18.926;2023-02-28T17:32:54;116.43;;;55.35;;
41623;SDS011;27319;50.306;18.926;2023-02-28T17:36:54;122.40;;;59.97;;
41623;SDS011;27319;50.306;18.926;2023-02-28T17:40:55;117.68;;;52.88;;
41623;SDS011;27319;50.306;18.926;2023-02-28T17:44:56;92.70;;;43.75;;
41623;SDS011;27319;50.306;18.926;2023-02-28T17:48:57;95.32;;;42.42;;
41623;SDS011;27319;50.306;18.926;2023-02-28T17:52:05;95.35;;;44.78;;
41623;SDS011;27319;50.306;18.926;2023-02-28T17:55:08;89.53;;;41.38;;
41623;SDS011;27319;50.306;18.926;2023-02-28T17:58:10;94.80;;;41.97;;
41623;SDS011;27319;50.306;18.926;2023-02-28T18:02:11;92.03;;;43.60;;
41623;SDS011;27319;50.306;18.926;2023-02-28T18:06:17;87.78;;;42.55;;
41623;SDS011;27319;50.306;18.926;2023-02-28T18:09:24;88.63;;;43.47;;
41623;SDS011;27319;50.306;18.926;2023-02-28T18:12:25;91.70;;;42.17;;
41623;SDS011;27319;50.306;18.926;2023-02-28T18:15:26;79.65;;;37.65;;
41623;SDS011;27319;50.306;18.926;2023-02-28T18:19:27;69.95;;;34.13;;
41623;SDS011;27319;50.306;18.926;2023-02-28T18:23:27;77.15;;;35.65;;
41623;SDS011;27319;50.306;18.926;2023-02-28T18:26:28;80.07;;;39.65;;
41623;SDS011;27319;50.306;18.926;2023-02-28T18:29:29;84.90;;;40.72;;
41623;SDS011;27319;50.306;18.926;2023-02-28T18:33:30;86.18;;;41.75;;
41623;SDS011;27319;50.306;18.926;2023-02-28T18:37:31;88.20;;;45.33;;
41623;SDS011;27319;50.306;18.926;2023-02-28T18:41:32;91.95;;;42.40;;
41623;SDS011;27319;50.306;18.926;2023-02-28T18:44:33;84.97;;;43.83;;
41623;SDS011;27319;50.306;18.926;2023-02-28T18:48:34;88.45;;;43.05;;
41623;SDS011;27319;50.306;18.926;2023-02-28T18:52:35;95.18;;;45.22;;
41623;SDS011;27319;50.306;18.926;2023-02-28T18:56:36;116.47;;;49.85;;
41623;SDS011;27319;50.306;18.926;2023-02-28T19:00:36;98.63;;;48.38;;
41623;SDS011;27319;50.306;18.926;2023-02-28T19:04:39;93.50;;;45.90;;
41623;SDS011;27319;50.306;18.926;2023-02-28T19:07:40;92.57;;;46.80;;
41623;SDS011;27319;50.306;18.926;2023-02-28T19:10:41;90.78;;;47.22;;
41623;SDS011;27319;50.306;18.926;2023-02-28T19:14:42;98.03;;;49.30;;
41623;SDS011;27319;50.306;18.926;2023-02-28T19:18:44;102.47;;;50.33;;
41623;SDS011;27319;50.306;18.926;2023-02-28T19:22:40;98.22;;;49.20;;
41623;SDS011;27319;50.306;18.926;2023-02-28T19:26:40;97.45;;;49.55;;
41623;SDS011;27319;50.306;18.926;2023-02-28T19:30:48;86.50;;;44.83;;
41623;SDS011;27319;50.306;18.926;2023-02-28T19:34:51;103.38;;;49.15;;
41623;SDS011;27319;50.306;18.926;2023-02-28T19:38:51;124.95;;;56.47;;
41623;SDS011;27319;50.306;18.926;2023-02-28T19:42:52;113.57;;;54.60;;
41623;SDS011;27319;50.306;18.926;2023-02-28T19:46:53;110.03;;;55.40;;
41623;SDS011;27319;50.306;18.926;2023-02-28T19:49:54;102.90;;;54.22;;
41623;SDS011;27319;50.306;18.926;2023-02-28T19:52:56;112.57;;;53.70;;
41623;SDS011;27319;50.306;18.926;2023-02-28T19:56:56;112.47;;;53.33;;
41623;SDS011;27319;50.306;18.926;2023-02-28T20:00:57;108.90;;;54.72;;
41623;SDS011;27319;50.306;18.926;2023-02-28T20:04:58;101.07;;;52.72;;
41623;SDS011;27319;50.306;18.926;2023-02-28T20:08:59;107.55;;;51.63;;
41623;SDS011;27319;50.306;18.926;2023-02-28T20:11:59;98.93;;;50.22;;
41623;SDS011;27319;50.306;18.926;2023-02-28T20:16:01;95.43;;;50.65;;
41623;SDS011;27319;50.306;18.926;2023-02-28T20:20:01;93.63;;;48.78;;
41623;SDS011;27319;50.306;18.926;2023-02-28T20:24:02;147.05;;;59.15;;
41623;SDS011;27319;50.306;18.926;2023-02-28T20:28:03;107.28;;;50.40;;
41623;SDS011;27319;50.306;18.926;2023-02-28T20:32:04;154.32;;;64.15;;
41623;SDS011;27319;50.306;18.926;2023-02-28T20:36:04;202.75;;;82.15;;
41623;SDS011;27319;50.306;18.926;2023-02-28T20:40:06;302.08;;;104.72;;
41623;SDS011;27319;50.306;18.926;2023-02-28T20:44:08;276.70;;;108.25;;
41623;SDS011;27319;50.306;18.926;2023-02-28T20:48:07;421.10;;;157.05;;
41623;SDS011;27319;50.306;18.926;2023-02-28T20:52:08;506.45;;;199.95;;
41623;SDS011;27319;50.306;18.926;2023-02-28T20:56:13;397.27;;;157.48;;
41623;SDS011;27319;50.306;18.926;2023-02-28T21:00:10;383.23;;;150.35;;
41623;SDS011;27319;50.306;18.926;2023-02-28T21:04:14;393.42;;;152.77;;
41623;SDS011;27319;50.306;18.926;2023-02-28T21:08:15;325.40;;;127.10;;
41623;SDS011;27319;50.306;18.926;2023-02-28T21:11:20;308.00;;;122.18;;
41623;SDS011;27319;50.306;18.926;2023-02-28T21:14:23;270.40;;;108.57;;
41623;SDS011;27319;50.306;18.926;2023-02-28T21:17:27;251.95;;;101.97;;
41623;SDS011;27319;50.306;18.926;2023-02-28T21:20:29;228.48;;;96.32;;
41623;SDS011;27319;50.306;18.926;2023-02-28T21:24:29;201.77;;;87.72;;
41623;SDS011;27319;50.306;18.926;2023-02-28T21:28:17;199.30;;;86.78;;
41623;SDS011;27319;50.306;18.926;2023-02-28T21:32:18;191.25;;;84.43;;
41623;SDS011;27319;50.306;18.926;2023-02-28T21:36:20;172.40;;;82.45;;
41623;SDS011;27319;50.306;18.926;2023-02-28T21:40:19;184.95;;;81.57;;
41623;SDS011;27319;50.306;18.926;2023-02-28T21:44:20;174.90;;;81.78;;
41623;SDS011;27319;50.306;18.926;2023-02-28T21:48:21;171.02;;;76.07;;
41623;SDS011;27319;50.306;18.926;2023-02-28T21:52:22;169.98;;;74.93;;
41623;SDS011;27319;50.306;18.926;2023-02-28T21:56:24;174.77;;;77.65;;
41623;SDS011;27319;50.306;18.926;2023-02-28T22:00:24;166.30;;;76.45;;
41623;SDS011;27319;50.306;18.926;2023-02-28T22:03:25;154.48;;;76.72;;
41623;SDS011;27319;50.306;18.926;2023-02-28T22:06:27;167.73;;;76.35;;
41623;SDS011;27319;50.306;18.926;2023-02-28T22:09:30;164.55;;;76.45;;
41623;SDS011;27319;50.306;18.926;2023-02-28T22:12:31;157.73;;;73.63;;
41623;SDS011;27319;50.306;18.926;2023-02-28T22:16:32;153.18;;;71.03;;